Time;durP1;ratioP1;P1;durP2;ratioP2;P2;SDS_P1;SDS_P2;PMS_P1;PMS_P2;Temp;Humidity;BMP_temperature;BMP_pressure;BME280_temperature;BME280_humidity;BME280_pressure;Samples;Min_cycle;Max_cycle;Signal;HPM_P1;HPM_P2
2021/07/06 00:00:27;;;;;;;13.70;12.30;;;;;;;18.38;80.11;100061.39;92679;1217;86862;-60
2021/07/06 00:02:54;;;;;;;14.60;13.20;;;;;;;18.35;80.14;100067.39;92712;1224;73523;-62
2021/07/06 00:05:02;;;;;;;14.30;13.00;;;;;;;18.31;80.17;100058.01;92700;1217;81793;-61
2021/07/06 00:07:15;;;;;;;14.80;13.30;;;;;;;18.35;80.15;100067.39;92707;1217;68205;-63
2021/07/06 00:09:25;;;;;;;13.40;12.10;;;;;;;18.33;80.16;100061.31;92732;1224;69213;-62
2021/07/06 00:11:36;;;;;;;13.60;12.30;;;;;;;18.33;80.01;100067.63;92732;1217;87602;-71
2021/07/06 00:13:47;;;;;;;14.30;12.80;;;;;;;18.29;80.16;100066.48;92717;1216;76068;-71
2021/07/06 00:15:55;;;;;;;13.70;12.30;;;;;;;18.24;80.22;100069.93;92698;1222;82413;-69
2021/07/06 00:18:03;;;;;;;13.00;11.70;;;;;;;18.20;80.18;100068.78;92695;1216;67004;-70
2021/07/06 00:20:16;;;;;;;15.10;11.80;;;;;;;18.17;80.17;100074.74;92711;1217;70214;-62
2021/07/06 00:22:23;;;;;;;13.50;12.30;;;;;;;18.16;80.23;100077.70;92748;1209;85998;-60
2021/07/06 00:24:31;;;;;;;13.80;12.00;;;;;;;18.17;80.12;100069.27;92726;1216;75583;-61
2021/07/06 00:26:39;;;;;;;13.00;11.70;;;;;;;18.15;80.23;100076.06;92709;1216;82657;-61
2021/07/06 00:28:47;;;;;;;12.60;11.50;;;;;;;18.15;80.11;100081.54;92688;1224;67188;-60
2021/07/06 00:30:55;;;;;;;13.10;11.80;;;;;;;18.06;80.15;100088.47;92717;1217;70316;-68
2021/07/06 00:33:02;;;;;;;12.90;11.00;;;;;;;18.05;80.24;100081.33;92680;1223;85938;-69
2021/07/06 00:35:12;;;;;;;13.70;11.80;;;;;;;18.02;80.23;100079.92;92703;1221;74340;-61
2021/07/06 00:37:23;;;;;;;12.50;11.30;;;;;;;17.98;80.25;100075.20;92730;1217;80222;-62
2021/07/06 00:39:30;;;;;;;13.30;12.00;;;;;;;17.95;80.31;100081.98;92686;1217;67562;-61
2021/07/06 00:41:40;;;;;;;12.50;11.30;;;;;;;17.98;80.19;100077.94;92738;1222;67682;-62
2021/07/06 00:43:48;;;;;;;13.00;11.70;;;;;;;17.98;80.14;100077.94;92636;1214;87096;-63
2021/07/06 00:45:59;;;;;;;13.30;11.90;;;;;;;17.93;80.31;100078.68;92726;1210;75618;-69
2021/07/06 00:48:08;;;;;;;15.80;13.20;;;;;;;17.91;80.30;100088.20;88024;1209;3013401;-69
2021/07/06 00:50:20;;;;;;;13.90;12.60;;;;;;;17.90;80.26;100092.00;92712;1222;65597;-70
2021/07/06 00:52:30;;;;;;;15.00;13.20;;;;;;;17.89;80.31;100091.16;92705;1222;67908;-68
2021/07/06 00:54:41;;;;;;;13.70;12.20;;;;;;;17.91;80.32;100094.47;92716;1209;86105;-64
2021/07/06 00:56:49;;;;;;;13.70;12.30;;;;;;;17.92;80.43;100098.04;92718;1224;75084;-62
2021/07/06 00:58:58;;;;;;;14.50;13.00;;;;;;;17.93;80.26;100094.25;92713;1216;82521;-61
2021/07/06 01:01:08;;;;;;;14.50;13.10;;;;;;;17.94;80.33;100093.98;92708;1222;64960;-62
2021/07/06 01:03:16;;;;;;;15.50;14.10;;;;;;;17.96;80.33;100100.06;92731;1217;67660;-62
2021/07/06 01:05:26;;;;;;;14.30;12.90;;;;;;;17.97;80.36;100104.44;92700;1222;87270;-62
2021/07/06 01:07:34;;;;;;;15.80;13.70;;;;;;;18.01;80.33;100093.84;92690;1222;75692;-61
2021/07/06 01:09:42;;;;;;;14.30;12.40;;;;;;;18.01;80.29;100097.42;92699;1224;81718;-63
2021/07/06 01:11:51;;;;;;;15.00;13.00;;;;;;;17.94;80.32;100091.25;92654;1224;65443;-62
2021/07/06 01:13:58;;;;;;;16.70;13.60;;;;;;;17.89;80.37;100093.89;92736;1217;69561;-63
2021/07/06 01:16:07;;;;;;;15.10;13.60;;;;;;;17.83;80.25;100094.86;92687;1223;87157;-62
2021/07/06 01:18:19;;;;;;;15.50;13.80;;;;;;;17.78;80.39;100094.77;92722;1216;75375;-60
2021/07/06 01:20:27;;;;;;;14.20;12.90;;;;;;;17.75;80.26;100103.45;92704;1217;81920;-61
2021/07/06 01:22:36;;;;;;;14.40;13.00;;;;;;;17.66;80.50;100103.00;92677;1224;68392;-61
2021/07/06 01:24:44;;;;;;;15.90;14.00;;;;;;;17.66;80.47;100100.27;92710;1224;69247;-61
2021/07/06 01:26:55;;;;;;;15.20;13.60;;;;;;;17.62;80.42;100106.47;92692;1216;87005;-60
2021/07/06 01:29:03;;;;;;;15.60;14.10;;;;;;;17.59;80.58;100099.59;92720;1216;73848;-61
2021/07/06 01:31:11;;;;;;;15.70;14.20;;;;;;;17.57;80.50;100098.17;92693;1217;80361;-60
2021/07/06 01:33:25;;;;;;;15.70;13.90;;;;;;;17.51;80.38;100101.84;92702;1217;66759;-61
2021/07/06 01:35:33;;;;;;;14.50;12.90;;;;;;;17.48;80.55;100091.39;92722;1216;67670;-61
2021/07/06 01:37:46;;;;;;;15.20;13.70;;;;;;;17.39;80.56;100096.40;92682;1216;86854;-61
2021/07/06 01:39:54;;;;;;;15.50;14.00;;;;;;;17.32;80.61;100095.71;92741;1217;73812;-61
2021/07/06 01:42:02;;;;;;;14.80;12.70;;;;;;;17.31;80.74;100091.31;92677;1217;81691;-61
2021/07/06 01:44:22;;;;;;;13.70;12.40;;;;;;;17.26;80.72;100090.38;92692;1221;68030;-61
2021/07/06 01:46:30;;;;;;;14.40;13.00;;;;;;;17.21;80.70;100099.30;92708;1224;69444;-60
2021/07/06 01:48:37;;;;;;;13.30;12.00;;;;;;;17.17;80.75;100100.83;92727;1217;85300;-63
2021/07/06 01:50:46;;;;;;;13.90;12.60;;;;;;;17.16;80.77;100095.63;92699;1217;75050;-61
2021/07/06 01:52:57;;;;;;;14.10;12.70;;;;;;;17.16;80.89;100103.81;92709;1223;81632;-61
2021/07/06 01:55:13;;;;;;;13.60;12.20;;;;;;;17.14;80.86;100101.30;92671;1216;69010;-69
2021/07/06 01:57:24;;;;;;;12.50;11.10;;;;;;;17.09;80.93;100106.66;92698;1216;68611;-69
2021/07/06 01:59:32;;;;;;;12.70;11.50;;;;;;;17.09;80.83;100106.66;92710;1224;86431;-70
2021/07/06 02:01:44;;;;;;;13.00;11.70;;;;;;;17.02;80.83;100104.06;92742;1217;73721;-70
2021/07/06 02:03:55;;;;;;;13.40;12.10;;;;;;;17.02;81.05;100111.42;92693;1217;81777;-68
2021/07/06 02:06:03;;;;;;;17.10;12.70;;;;;;;16.99;80.87;100104.54;92663;1217;68058;-69
2021/07/06 02:08:13;;;;;;;13.60;12.30;;;;;;;16.98;81.00;100100.14;92718;1222;69184;-69
2021/07/06 02:10:22;;;;;;;12.90;11.60;;;;;;;16.94;80.98;100109.89;92689;1218;86225;-69
2021/07/06 02:12:30;;;;;;;13.60;12.40;;;;;;;16.87;81.01;100111.05;92696;1217;75510;-68
2021/07/06 02:14:40;;;;;;;14.00;12.60;;;;;;;16.85;80.95;100113.19;92690;1217;81012;-62
2021/07/06 02:16:48;;;;;;;14.80;13.30;;;;;;;16.79;81.10;100114.13;92674;1222;67303;-60
2021/07/06 02:18:56;;;;;;;13.20;11.80;;;;;;;16.79;81.12;100119.59;92703;1217;68753;-61
2021/07/06 02:21:04;;;;;;;13.10;11.20;;;;;;;16.76;81.08;100120.89;92688;1217;88042;-60
2021/07/06 02:23:12;;;;;;;13.80;11.50;;;;;;;16.72;81.12;100108.81;92705;1217;73756;-60
2021/07/06 02:25:21;;;;;;;14.00;12.60;;;;;;;16.70;81.36;100119.10;92675;1217;82346;-69
2021/07/06 02:27:29;;;;;;;13.60;12.20;;;;;;;16.71;81.16;100118.05;92679;1222;67014;-68
2021/07/06 02:29:40;;;;;;;13.50;12.30;;;;;;;16.71;81.38;100125.39;92702;1222;69371;-67
2021/07/06 02:31:48;;;;;;;13.20;11.30;;;;;;;16.71;81.25;100131.69;92597;1219;85621;-61
2021/07/06 02:33:55;;;;;;;13.20;11.70;;;;;;;16.70;81.49;100137.39;92704;1217;75353;-61
2021/07/06 02:36:09;;;;;;;12.70;11.40;;;;;;;16.68;81.42;100137.61;92668;1223;82222;-61
2021/07/06 02:38:17;;;;;;;13.40;12.10;;;;;;;16.66;81.53;100141.64;92737;1221;65802;-61
2021/07/06 02:40:25;;;;;;;11.30;10.20;;;;;;;16.66;81.59;100141.64;92691;1217;69505;-62
2021/07/06 02:42:33;;;;;;;12.40;11.20;;;;;;;16.63;81.57;100142.95;92667;1217;86981;-60
2021/07/06 02:44:41;;;;;;;13.80;12.10;;;;;;;16.65;81.52;100138.08;92669;1214;74896;-60
2021/07/06 02:46:49;;;;;;;16.20;12.80;;;;;;;16.66;81.63;100147.94;92660;1217;83183;-61
2021/07/06 02:48:56;;;;;;;18.50;13.70;;;;;;;16.65;81.70;100146.27;92712;1217;67263;-61
2021/07/06 02:51:04;;;;;;;13.50;12.10;;;;;;;16.66;81.65;100142.48;92729;1217;69368;-61
2021/07/06 02:53:12;;;;;;;13.80;12.20;;;;;;;16.63;81.75;100148.41;92714;1217;86335;-60
2021/07/06 02:55:21;;;;;;;12.70;11.40;;;;;;;16.66;81.78;100156.12;92707;1217;75142;-70
2021/07/06 02:57:36;;;;;;;12.90;11.70;;;;;;;16.68;81.88;100158.59;92735;1209;80633;-70
2021/07/06 02:59:43;;;;;;;14.20;12.60;;;;;;;16.72;81.91;100152.45;92688;1216;66668;-68
2021/07/06 03:01:51;;;;;;;14.60;12.60;;;;;;;16.77;81.89;100151.73;92699;1222;69095;-70
2021/07/06 03:03:59;;;;;;;13.10;11.80;;;;;;;16.83;81.99;100162.55;92685;1216;86911;-70
2021/07/06 03:06:06;;;;;;;14.10;12.70;;;;;;;16.87;81.97;100158.27;92690;1217;75456;-70
2021/07/06 03:08:14;;;;;;;12.90;11.70;;;;;;;16.92;82.11;100146.67;92704;1209;80551;-70
2021/07/06 03:10:28;;;;;;;13.30;12.00;;;;;;;17.04;82.18;100151.05;92689;1217;67513;-61
2021/07/06 03:12:36;;;;;;;13.50;12.00;;;;;;;17.11;82.20;100157.20;92717;1217;68021;-60
2021/07/06 03:14:43;;;;;;;14.30;12.60;;;;;;;17.16;82.33;100155.67;92689;1217;87105;-62
2021/07/06 03:16:51;;;;;;;13.50;11.90;;;;;;;17.25;82.12;100162.45;92715;1217;74769;-61
2021/07/06 03:18:58;;;;;;;15.50;11.60;;;;;;;17.32;82.37;100154.95;92718;1217;81513;-62
2021/07/06 03:21:06;;;;;;;14.90;12.50;;;;;;;17.40;82.35;100160.88;92708;1217;65445;-70
2021/07/06 03:23:13;;;;;;;14.50;12.40;;;;;;;17.49;82.24;100159.45;92720;1222;67844;-70
2021/07/06 03:25:25;;;;;;;13.30;12.00;;;;;;;17.60;82.43;100164.09;92685;1224;86730;-62
2021/07/06 03:27:32;;;;;;;14.10;12.70;;;;;;;17.71;82.30;100159.67;92729;1217;74975;-63
2021/07/06 03:29:40;;;;;;;14.20;12.80;;;;;;;17.83;82.33;100163.18;92678;1217;81220;-66
2021/07/06 03:31:47;;;;;;;13.90;12.50;;;;;;;18.22;82.64;100165.06;92698;1217;67823;-61
2021/07/06 03:33:58;;;;;;;13.80;12.40;;;;;;;18.56;82.19;100159.69;92726;1224;67583;-62
2021/07/06 03:36:09;;;;;;;14.80;13.40;;;;;;;19.12;81.89;100167.72;92653;1222;86585;-70
2021/07/06 03:38:19;;;;;;;14.50;13.10;;;;;;;19.58;81.43;100172.00;92727;1217;73682;-68
2021/07/06 03:40:29;;;;;;;15.10;13.00;;;;;;;20.15;80.85;100177.91;92694;1216;82525;-69
2021/07/06 03:42:37;;;;;;;17.80;13.30;;;;;;;20.65;80.20;100174.06;92713;1217;68403;-69
2021/07/06 03:44:45;;;;;;;15.30;13.80;;;;;;;21.23;79.79;100178.69;92695;1217;68158;-67
2021/07/06 03:46:52;;;;;;;16.80;13.40;;;;;;;21.87;79.02;100168.34;92695;1217;86400;-68
2021/07/06 03:49:01;;;;;;;14.40;13.10;;;;;;;22.47;77.70;100174.02;92723;1217;74149;-69
2021/07/06 03:51:09;;;;;;;15.00;13.00;;;;;;;22.62;76.71;100178.73;92698;1223;81289;-61
2021/07/06 03:53:17;;;;;;;15.60;14.30;;;;;;;23.14;76.48;100172.98;92703;1224;65367;-61
2021/07/06 03:55:25;;;;;;;18.50;13.50;;;;;;;23.24;74.90;100181.27;92721;1216;68481;-69
2021/07/06 03:57:33;;;;;;;14.70;13.40;;;;;;;22.70;74.18;100187.31;92703;1221;86926;-68
2021/07/06 03:59:40;;;;;;;17.20;14.00;;;;;;;22.36;74.37;100177.85;92720;1217;74624;-62
2021/07/06 04:01:48;;;;;;;17.10;14.70;;;;;;;22.42;74.33;100189.70;92698;1221;81864;-61
2021/07/06 04:03:56;;;;;;;16.40;14.80;;;;;;;22.89;74.15;100193.11;92724;1223;65573;-63
2021/07/06 04:06:03;;;;;;;15.70;14.10;;;;;;;22.68;73.67;100194.20;92710;1217;70142;-61
2021/07/06 04:08:11;;;;;;;15.40;13.80;;;;;;;23.47;74.11;100200.81;92716;1221;86863;-62
2021/07/06 04:10:20;;;;;;;15.70;13.80;;;;;;;24.44;72.97;100195.77;92690;1216;75502;-70
2021/07/06 04:12:28;;;;;;;14.90;13.50;;;;;;;25.04;71.66;100202.83;92732;1217;81639;-68
2021/07/06 04:14:35;;;;;;;15.10;13.70;;;;;;;24.83;70.13;100196.63;92710;1221;65350;-68
2021/07/06 04:16:43;;;;;;;16.80;14.00;;;;;;;24.18;69.54;100194.24;92715;1217;68864;-62
2021/07/06 04:18:53;;;;;;;15.10;13.60;;;;;;;23.93;70.44;100204.27;92703;1224;86583;-62
2021/07/06 04:21:06;;;;;;;15.10;13.70;;;;;;;24.65;70.13;100202.81;92665;1217;75458;-66
2021/07/06 04:23:14;;;;;;;14.30;13.00;;;;;;;25.32;68.86;100201.20;92688;1217;81844;-67
2021/07/06 04:25:23;;;;;;;14.60;13.20;;;;;;;25.52;67.99;100201.04;92707;1224;65835;-67
2021/07/06 04:27:34;;;;;;;14.30;12.40;;;;;;;26.15;67.55;100196.98;92687;1224;68779;-68
2021/07/06 04:29:46;;;;;;;13.60;12.30;;;;;;;26.57;66.57;100198.89;92688;1217;86790;-65
2021/07/06 04:31:55;;;;;;;13.80;11.80;;;;;;;27.21;64.79;100205.66;92737;1222;75339;-64
2021/07/06 04:34:02;;;;;;;12.20;11.10;;;;;;;27.67;64.02;100202.90;92703;1224;81507;-64
2021/07/06 04:36:13;;;;;;;12.90;11.70;;;;;;;28.16;63.21;100197.48;92700;1217;65791;-65
2021/07/06 04:38:21;;;;;;;13.60;12.20;;;;;;;28.58;61.45;100197.09;92735;1217;68186;-63
2021/07/06 04:40:32;;;;;;;13.40;12.10;;;;;;;28.89;61.07;100204.75;92710;1217;86857;-64
2021/07/06 04:42:39;;;;;;;13.60;12.20;;;;;;;29.20;60.35;100205.61;92745;1223;76134;-68
2021/07/06 04:44:47;;;;;;;12.40;11.10;;;;;;;29.38;58.78;100203.80;92714;1216;81953;-66
2021/07/06 04:46:55;;;;;;;12.50;10.80;;;;;;;29.28;57.97;100210.47;92707;1224;67562;-67
2021/07/06 04:49:02;;;;;;;12.60;10.40;;;;;;;29.34;57.08;100208.38;92737;1216;70457;-72
2021/07/06 04:51:10;;;;;;;12.30;11.00;;;;;;;29.56;56.46;100209.14;92709;1217;87503;-63
2021/07/06 04:53:18;;;;;;;11.80;10.80;;;;;;;29.80;56.35;100206.03;92724;1216;75654;-65
2021/07/06 04:55:26;;;;;;;10.80;9.80;;;;;;;30.03;55.57;100217.89;92664;1221;81193;-67
2021/07/06 04:57:34;;;;;;;11.20;10.20;;;;;;;30.24;54.90;100210.59;92711;1224;67796;-67
2021/07/06 04:59:41;;;;;;;9.80;8.80;;;;;;;30.62;54.73;100211.68;92724;1216;69802;-65
2021/07/06 05:01:50;;;;;;;11.30;10.20;;;;;;;31.05;53.97;100219.24;92689;1216;86050;-64
2021/07/06 05:03:59;;;;;;;9.70;8.80;;;;;;;31.29;52.42;100225.12;92720;1222;75119;-66
2021/07/06 05:06:07;;;;;;;9.60;8.80;;;;;;;31.43;51.74;100222.95;92671;1216;80760;-69
2021/07/06 05:08:15;;;;;;;9.30;8.50;;;;;;;31.68;51.66;100222.10;92686;1216;65436;-68
2021/07/06 05:10:26;;;;;;;9.70;8.80;;;;;;;32.14;50.45;100214.88;92675;1216;68912;-67
2021/07/06 05:12:34;;;;;;;9.80;8.90;;;;;;;32.24;49.72;100211.69;92708;1216;87132;-66
2021/07/06 05:14:47;;;;;;;8.70;8.00;;;;;;;32.39;49.75;100205.49;92719;1216;75120;-65
2021/07/06 05:16:55;;;;;;;8.70;7.70;;;;;;;32.50;48.78;100212.33;92662;1216;80134;-64
2021/07/06 05:19:02;;;;;;;9.00;8.20;;;;;;;32.94;48.07;100208.88;92710;1216;66829;-64
2021/07/06 05:21:10;;;;;;;9.10;8.30;;;;;;;33.19;46.99;100213.45;92683;1222;70085;-68
2021/07/06 05:23:18;;;;;;;8.10;7.30;;;;;;;33.33;46.97;100218.75;92725;1217;87393;-68
2021/07/06 05:25:25;;;;;;;9.00;8.10;;;;;;;33.57;46.78;100221.65;92715;1209;75262;-67
2021/07/06 05:27:33;;;;;;;9.30;7.60;;;;;;;33.66;46.29;100229.95;92725;1216;81512;-67
2021/07/06 05:29:41;;;;;;;8.30;7.50;;;;;;;33.82;44.98;100219.70;92686;1224;67332;-66
2021/07/06 05:31:48;;;;;;;8.20;7.40;;;;;;;33.89;44.70;100225.58;92681;1216;69394;-64
2021/07/06 05:33:56;;;;;;;11.90;10.60;;;;;;;34.03;44.65;100223.25;92707;1216;86806;-64
2021/07/06 05:36:05;;;;;;;55.60;50.60;;;;;;;34.15;43.28;100223.27;92682;1216;75346;-65
2021/07/06 05:38:12;;;;;;;24.40;17.30;;;;;;;34.15;43.14;100226.06;92700;1216;81257;-64
2021/07/06 05:40:21;;;;;;;21.10;10.60;;;;;;;34.61;42.22;100232.38;92730;1213;66629;-67
2021/07/06 05:42:28;;;;;;;12.10;8.20;;;;;;;34.65;41.62;100227.67;92743;1217;67834;-69
2021/07/06 05:44:47;;;;;;;8.70;7.40;;;;;;;34.76;41.37;100224.03;92714;1224;86753;-67
2021/07/06 05:46:54;;;;;;;7.90;7.10;;;;;;;34.96;40.80;100219.41;92721;1224;74951;-63
2021/07/06 05:49:02;;;;;;;7.70;6.80;;;;;;;35.05;41.42;100231.32;92717;1222;80635;-65
2021/07/06 05:51:10;;;;;;;7.70;6.90;;;;;;;35.27;40.42;100233.57;92675;1217;67192;-64
2021/07/06 05:53:17;;;;;;;8.10;6.80;;;;;;;35.68;39.93;100228.72;92711;1217;68487;-65
2021/07/06 05:55:26;;;;;;;8.50;7.00;;;;;;;35.86;39.63;100229.98;92687;1217;87737;-65
2021/07/06 05:57:36;;;;;;;7.40;6.60;;;;;;;36.04;40.15;100234.91;92749;1217;74742;-65
2021/07/06 05:59:46;;;;;;;6.80;6.20;;;;;;;36.10;38.94;100227.83;92699;1217;81668;-66
2021/07/06 06:01:54;;;;;;;7.40;6.70;;;;;;;36.40;38.31;100224.54;92646;1218;67342;-68
2021/07/06 06:04:02;;;;;;;8.00;7.00;;;;;;;36.43;39.36;100230.23;92730;1224;68752;-67
2021/07/06 06:06:11;;;;;;;7.70;7.00;;;;;;;36.60;38.13;100235.49;92691;1218;87382;-69
2021/07/06 06:08:18;;;;;;;7.50;6.90;;;;;;;36.87;38.00;100233.67;92708;1218;74637;-68
2021/07/06 06:10:26;;;;;;;7.70;7.00;;;;;;;36.90;37.30;100232.93;92712;1218;82902;-67
2021/07/06 06:12:37;;;;;;;8.10;7.10;;;;;;;36.99;37.56;100244.02;92699;1222;66113;-69
2021/07/06 06:14:45;;;;;;;7.20;6.50;;;;;;;36.74;37.20;100239.80;92711;1216;68808;-65
2021/07/06 06:16:52;;;;;;;7.10;6.60;;;;;;;36.54;36.68;100236.95;92714;1222;85891;-65
2021/07/06 06:19:00;;;;;;;8.90;6.90;;;;;;;36.80;36.48;100239.16;92698;1216;74941;-64
2021/07/06 06:21:08;;;;;;;7.30;6.60;;;;;;;36.91;35.85;100237.39;92683;1217;81669;-64
2021/07/06 06:23:16;;;;;;;7.60;6.70;;;;;;;37.17;35.89;100242.38;92708;1223;65442;-64
2021/07/06 06:25:24;;;;;;;6.90;6.20;;;;;;;37.22;36.20;100237.25;92723;1217;68793;-66
2021/07/06 06:27:31;;;;;;;6.70;6.20;;;;;;;37.46;35.52;100243.80;92700;1217;86026;-64
2021/07/06 06:29:40;;;;;;;7.20;6.50;;;;;;;37.47;35.44;100239.81;92714;1217;74849;-65
2021/07/06 06:31:49;;;;;;;7.40;6.80;;;;;;;37.64;35.53;100245.77;92674;1216;81807;-64
2021/07/06 06:33:56;;;;;;;7.00;6.40;;;;;;;37.80;35.54;100245.64;92697;1218;66124;-65
2021/07/06 06:36:04;;;;;;;6.50;6.00;;;;;;;37.85;34.33;100244.53;92714;1217;68108;-65
2021/07/06 06:38:12;;;;;;;7.00;6.40;;;;;;;38.02;34.17;100244.06;92713;1223;86304;-64
2021/07/06 06:40:20;;;;;;;7.00;6.40;;;;;;;38.12;34.56;100243.42;92693;1223;74896;-64
2021/07/06 06:42:28;;;;;;;8.80;6.30;;;;;;;38.22;33.71;100243.59;92717;1221;80487;-64
2021/07/06 06:44:37;;;;;;;6.90;6.30;;;;;;;38.44;33.92;100241.94;92693;1217;65964;-64
2021/07/06 06:46:45;;;;;;;6.20;5.70;;;;;;;38.44;32.15;100244.77;92659;1219;68606;-64
2021/07/06 06:49:00;;;;;;;7.10;6.50;;;;;;;37.67;32.61;100233.73;92696;1217;87272;-66
2021/07/06 06:51:08;;;;;;;7.90;6.40;;;;;;;38.20;33.82;100250.80;92687;1217;75200;-63
2021/07/06 06:53:15;;;;;;;6.40;5.90;;;;;;;38.24;32.87;100246.84;92710;1217;83326;-64
2021/07/06 06:55:23;;;;;;;6.20;5.40;;;;;;;38.16;32.95;100252.74;92707;1222;65514;-65
2021/07/06 06:57:30;;;;;;;6.50;5.70;;;;;;;38.20;33.39;100256.45;92727;1217;68348;-64
2021/07/06 06:59:41;;;;;;;6.50;6.00;;;;;;;38.13;32.25;100251.49;92715;1217;86365;-65
2021/07/06 07:01:49;;;;;;;6.40;5.90;;;;;;;37.89;31.97;100256.70;92675;1223;74808;-67
2021/07/06 07:03:56;;;;;;;6.40;5.90;;;;;;;37.83;31.55;100252.56;92719;1223;80162;-68
2021/07/06 07:06:04;;;;;;;7.50;6.60;;;;;;;38.04;31.17;100259.42;92709;1217;65598;-64
2021/07/06 07:08:11;;;;;;;6.60;5.80;;;;;;;38.02;32.27;100252.53;92740;1216;68983;-67
2021/07/06 07:10:20;;;;;;;6.90;6.30;;;;;;;38.16;31.78;100249.92;92719;1223;86025;-67
2021/07/06 07:12:27;;;;;;;6.60;6.10;;;;;;;38.39;31.17;100247.92;92712;1222;75478;-67
2021/07/06 07:14:40;;;;;;;6.50;6.00;;;;;;;38.21;31.21;100252.45;92707;1221;82645;-67
2021/07/06 07:16:48;;;;;;;6.60;6.10;;;;;;;38.08;30.87;100248.99;92712;1224;67060;-64
2021/07/06 07:18:58;;;;;;;6.80;6.20;;;;;;;38.22;32.22;100245.59;92753;1217;68135;-63
2021/07/06 07:21:06;;;;;;;6.40;5.90;;;;;;;38.81;31.52;100245.77;92652;1219;86082;-68
2021/07/06 07:23:16;;;;;;;6.50;5.90;;;;;;;39.09;31.27;100242.47;92717;1216;75792;-68
2021/07/06 07:25:24;;;;;;;6.70;6.10;;;;;;;39.19;31.17;100252.30;92727;1222;82178;-65
2021/07/06 07:27:32;;;;;;;6.80;6.20;;;;;;;39.29;30.51;100237.49;92686;1218;66135;-64
2021/07/06 07:29:42;;;;;;;6.60;6.10;;;;;;;39.01;30.71;100245.61;92762;1212;68821;-66
2021/07/06 07:31:50;;;;;;;7.90;7.20;;;;;;;39.24;30.93;100243.50;92692;1222;86810;-63
2021/07/06 07:33:58;;;;;;;6.50;6.00;;;;;;;38.91;30.92;100247.91;92705;1223;75159;-62
2021/07/06 07:36:09;;;;;;;6.10;5.60;;;;;;;38.86;30.63;100248.25;92697;1209;80290;-61
2021/07/06 07:38:16;;;;;;;11.10;10.10;;;;;;;39.06;31.26;100242.45;92701;1217;67918;-65
2021/07/06 07:40:24;;;;;;;6.70;6.10;;;;;;;39.41;30.64;100238.06;92714;1220;69938;-63
2021/07/06 07:42:32;;;;;;;6.90;6.40;;;;;;;39.23;30.42;100253.98;92692;1217;85753;-63
2021/07/06 07:44:40;;;;;;;6.90;6.40;;;;;;;39.33;30.91;100247.66;92680;1217;75103;-64
2021/07/06 07:46:51;;;;;;;6.50;5.90;;;;;;;39.58;30.12;100247.12;92694;1218;81827;-63
2021/07/06 07:49:02;;;;;;;6.10;5.50;;;;;;;39.46;30.19;100246.19;92697;1217;66636;-62
2021/07/06 07:51:09;;;;;;;6.20;5.80;;;;;;;39.51;30.31;100245.84;92718;1217;68887;-67
2021/07/06 07:53:17;;;;;;;6.70;6.10;;;;;;;39.47;29.81;100249.84;92736;1223;86435;-63
2021/07/06 07:55:25;;;;;;;7.00;6.40;;;;;;;39.53;29.65;100251.09;92695;1223;73983;-62
2021/07/06 07:57:32;;;;;;;7.20;6.60;;;;;;;39.39;29.42;100259.44;92706;1217;81183;-62
2021/07/06 07:59:43;;;;;;;6.50;5.90;;;;;;;39.35;30.36;100261.41;92697;1222;68590;-64
2021/07/06 08:01:51;;;;;;;6.80;6.20;;;;;;;39.40;29.86;100269.53;92723;1223;68894;-63
2021/07/06 08:03:58;;;;;;;6.80;6.30;;;;;;;39.31;30.43;100269.04;92714;1217;86957;-63
2021/07/06 08:06:06;;;;;;;5.70;5.30;;;;;;;39.67;29.21;100267.46;92706;1209;75328;-67
2021/07/06 08:08:14;;;;;;;6.00;5.50;;;;;;;39.43;30.03;100272.41;92720;1210;81099;-69
2021/07/06 08:10:22;;;;;;;5.70;5.20;;;;;;;39.18;29.60;100278.92;92722;1215;66027;-63
2021/07/06 08:12:30;;;;;;;6.10;5.60;;;;;;;39.28;29.66;100278.29;92660;1217;69314;-66
2021/07/06 08:14:42;;;;;;;5.90;5.30;;;;;;;39.14;29.82;100280.91;92700;1224;86955;-65
2021/07/06 08:16:54;;;;;;;5.30;4.80;;;;;;;39.06;30.22;100270.70;92729;1217;75013;-64
2021/07/06 08:19:05;;;;;;;6.00;5.60;;;;;;;38.96;31.10;100277.83;92722;1209;80125;-63
2021/07/06 08:21:13;;;;;;;6.40;5.90;;;;;;;38.78;30.07;100266.30;92673;1224;67363;-64
2021/07/06 08:23:21;;;;;;;6.60;6.10;;;;;;;38.69;30.74;100268.55;92685;1217;68534;-68
2021/07/06 08:25:29;;;;;;;6.40;5.80;;;;;;;38.80;30.83;100269.55;92696;1216;86565;-64
2021/07/06 08:27:37;;;;;;;6.50;5.90;;;;;;;38.70;30.70;100270.19;92730;1217;73987;-63
2021/07/06 08:29:44;;;;;;;7.00;6.40;;;;;;;38.98;31.61;100268.98;92679;1224;81758;-62
2021/07/06 08:31:56;;;;;;;6.50;5.90;;;;;;;39.23;30.60;100268.12;92726;1216;65360;-63
2021/07/06 08:34:05;;;;;;;6.00;5.30;;;;;;;37.94;30.51;100267.70;92660;1217;67416;-63
2021/07/06 08:36:13;;;;;;;5.40;4.90;;;;;;;37.93;30.34;100264.06;92718;1222;85675;-66
2021/07/06 08:38:21;;;;;;;5.90;5.20;;;;;;;38.22;31.13;100266.17;92737;1217;75712;-63
2021/07/06 08:40:29;;;;;;;5.20;4.80;;;;;;;38.52;30.36;100271.91;92727;1222;80255;-66
2021/07/06 08:42:39;;;;;;;5.10;4.70;;;;;;;38.53;28.77;100276.38;92713;1222;67241;-66
2021/07/06 08:44:46;;;;;;;4.90;4.50;;;;;;;38.53;30.41;100278.38;92743;1217;69621;-63
2021/07/06 08:46:57;;;;;;;6.00;4.80;;;;;;;38.71;29.89;100285.92;92685;1221;87656;-63
2021/07/06 08:49:10;;;;;;;4.90;4.50;;;;;;;38.54;29.58;100283.63;92679;1217;74121;-64
2021/07/06 08:51:21;;;;;;;4.50;4.00;;;;;;;38.07;29.62;100280.42;92668;1222;81572;-67
2021/07/06 08:53:29;;;;;;;5.20;4.70;;;;;;;38.25;29.91;100276.70;92709;1216;66041;-63
2021/07/06 08:55:42;;;;;;;4.50;3.80;;;;;;;38.47;29.36;100277.07;92752;1216;69369;-64
2021/07/06 08:57:53;;;;;;;3.90;3.60;;;;;;;38.82;29.53;100278.45;92644;1220;88840;-62
2021/07/06 09:00:08;;;;;;;5.10;3.80;;;;;;;38.83;28.07;100279.27;92692;1209;73792;-64
2021/07/06 09:02:29;;;;;;;3.80;3.50;;;;;;;38.10;27.93;100286.11;92656;1219;81436;-68
2021/07/06 09:04:50;;;;;;;3.70;2.70;;;;;;;38.38;27.30;100287.84;92706;1215;65530;-67
2021/07/06 09:06:59;;;;;;;3.20;2.70;;;;;;;38.27;28.96;100281.95;92711;1216;69475;-64
2021/07/06 09:09:26;;;;;;;2.90;2.20;;;;;;;38.17;28.22;100291.89;92722;1224;88397;-63
2021/07/06 09:11:47;;;;;;;4.30;3.60;;;;;;;38.02;28.98;100284.36;92723;1216;75664;-63
2021/07/06 09:14:13;;;;;;;4.60;3.50;;;;;;;37.83;29.60;100282.38;92745;1224;81800;-62
2021/07/06 09:16:26;;;;;;;3.50;3.20;;;;;;;37.54;29.67;100285.86;92705;1224;67210;-63
2021/07/06 09:18:35;;;;;;;4.60;3.50;;;;;;;37.34;29.87;100270.11;92780;1217;70748;-64
2021/07/06 09:20:57;;;;;;;3.90;3.60;;;;;;;36.90;29.40;100277.17;92700;1224;88380;-68
2021/07/06 09:23:27;;;;;;;4.10;3.70;;;;;;;36.56;29.13;100273.99;92746;1224;74173;-69
2021/07/06 09:25:38;;;;;;;4.90;4.00;;;;;;;36.10;30.83;100277.64;92732;1214;80079;-63
2021/07/06 09:27:47;;;;;;;5.30;4.10;;;;;;;35.97;30.96;100279.70;92708;1216;66156;-66
2021/07/06 09:30:16;;;;;;;6.20;4.50;;;;;;;35.92;32.04;100276.34;92642;1219;69228;-62
2021/07/06 09:32:28;;;;;;;7.50;5.70;;;;;;;35.72;32.85;100271.78;92721;1224;87317;-64
2021/07/06 09:34:43;;;;;;;5.10;4.40;;;;;;;35.60;32.84;100269.05;92709;1222;74788;-64
2021/07/06 09:36:54;;;;;;;5.40;4.40;;;;;;;35.49;33.42;100275.14;92744;1216;80948;-70
2021/07/06 09:39:12;;;;;;;5.00;4.50;;;;;;;35.29;33.43;100278.18;92741;1224;66218;-68
2021/07/06 09:41:23;;;;;;;4.90;4.50;;;;;;;34.95;33.37;100277.55;92645;1220;69885;-68
2021/07/06 09:43:35;;;;;;;4.80;4.30;;;;;;;34.61;33.04;100280.09;92744;1216;86649;-68
2021/07/06 09:45:47;;;;;;;5.10;4.70;;;;;;;34.28;33.67;100280.20;92698;1217;74882;-62
2021/07/06 09:48:11;;;;;;;5.90;5.30;;;;;;;33.95;33.91;100285.86;92715;1224;81520;-62
2021/07/06 09:50:22;;;;;;;5.30;4.80;;;;;;;33.89;35.96;100287.24;92717;1224;66616;-67
2021/07/06 09:52:34;;;;;;;5.20;4.70;;;;;;;33.82;36.85;100292.59;92742;1217;70170;-67
2021/07/06 09:54:45;;;;;;;5.00;4.20;;;;;;;33.84;35.35;100281.86;92717;1217;87223;-63